createdAt,value
2019-02-14T00:01:09.880Z,63.28
2019-02-14T00:03:37.333Z,63.50
2019-02-14T00:06:04.785Z,64.75
2019-02-14T00:08:32.287Z,64.09
2019-02-14T00:10:59.785Z,66.26
2019-02-14T00:13:27.147Z,64.15
2019-02-14T00:15:54.620Z,63.13
2019-02-14T00:18:22.042Z,63.14
2019-02-14T00:20:49.488Z,63.42
2019-02-14T00:23:17.100Z,64.66
2019-02-14T00:25:44.695Z,63.42
2019-02-14T00:28:12.232Z,65.48
2019-02-14T00:30:39.597Z,65.95
2019-02-14T00:33:07.071Z,64.21
2019-02-14T00:35:34.488Z,66.00
2019-02-14T00:38:01.966Z,64.76
2019-02-14T00:40:29.493Z,66.42
2019-02-14T00:42:56.923Z,66.57
2019-02-14T00:45:24.348Z,65.59
2019-02-14T00:47:51.850Z,64.84
2019-02-14T00:50:19.381Z,68.18
2019-02-14T00:52:46.867Z,66.55
2019-02-14T00:55:14.323Z,65.66
2019-02-14T00:57:41.729Z,67.74
2019-02-14T01:00:09.957Z,66.00
2019-02-14T01:02:37.413Z,65.65
2019-02-14T01:05:05.119Z,65.71
2019-02-14T01:07:32.617Z,66.12
2019-02-14T01:10:00.293Z,67.42
2019-02-14T01:12:27.776Z,65.35
2019-02-14T01:14:55.140Z,65.23
2019-02-14T01:17:22.905Z,65.66
2019-02-14T01:19:50.603Z,67.35
2019-02-14T01:22:18.227Z,67.36
2019-02-14T01:24:45.609Z,67.00
2019-02-14T01:27:13.048Z,68.12
2019-02-14T01:29:40.522Z,67.04
2019-02-14T01:32:07.877Z,67.38
2019-02-14T01:34:35.352Z,69.64
2019-02-14T01:37:02.799Z,68.39
2019-02-14T01:39:30.258Z,69.27
2019-02-14T01:41:57.685Z,68.30
2019-02-14T01:44:25.087Z,69.52
2019-02-14T01:46:52.559Z,69.36
2019-02-14T01:49:20.207Z,68.62
2019-02-14T01:51:47.771Z,68.40
2019-02-14T01:54:15.275Z,69.47
2019-02-14T01:56:42.830Z,67.77
2019-02-14T01:59:10.289Z,68.59
2019-02-14T02:01:37.839Z,70.29
2019-02-14T02:04:05.357Z,69.35
2019-02-14T02:06:32.801Z,71.79
2019-02-14T02:09:00.236Z,71.98
2019-02-14T02:11:27.672Z,70.71
2019-02-14T02:13:55.147Z,71.24
2019-02-14T02:16:22.595Z,70.72
2019-02-14T02:18:49.976Z,71.33
2019-02-14T02:21:17.436Z,71.67
2019-02-14T02:23:44.893Z,71.38
2019-02-14T02:26:12.418Z,72.19
2019-02-14T02:28:39.803Z,72.18
2019-02-14T02:31:07.248Z,72.10
2019-02-14T02:33:34.633Z,73.40
2019-02-14T02:36:02.026Z,72.62
2019-02-14T02:38:29.611Z,73.12
2019-02-14T02:40:57.057Z,73.72
2019-02-14T02:43:24.490Z,74.73
2019-02-14T02:45:51.859Z,74.18
2019-02-14T02:48:19.313Z,74.50
2019-02-14T02:50:46.864Z,74.42
2019-02-14T02:53:14.265Z,73.70
2019-02-14T02:55:41.726Z,73.33
2019-02-14T02:58:09.239Z,73.63
2019-02-14T03:00:36.658Z,74.30
2019-02-14T03:03:04.190Z,74.25
2019-02-14T03:05:31.745Z,74.61
2019-02-14T03:07:59.315Z,75.64
2019-02-14T03:10:26.843Z,75.98
2019-02-14T03:12:54.320Z,74.50
2019-02-14T03:15:21.830Z,75.04
2019-02-14T03:17:49.243Z,74.72
2019-02-14T03:20:16.710Z,73.76
2019-02-14T03:22:44.151Z,76.00
2019-02-14T03:25:13.818Z,73.91
2019-02-14T03:27:41.272Z,73.78
2019-02-14T03:30:09.381Z,74.41
2019-02-14T03:32:36.748Z,74.23
2019-02-14T03:35:04.514Z,74.37
2019-02-14T03:37:31.945Z,74.68
2019-02-14T03:39:59.334Z,76.85
2019-02-14T03:42:26.761Z,75.61
2019-02-14T03:44:54.174Z,74.56
2019-02-14T03:47:21.608Z,77.57
2019-02-14T03:49:49.037Z,75.37
2019-02-14T03:52:16.770Z,77.31
2019-02-14T03:54:44.364Z,74.28
2019-02-14T03:57:11.789Z,76.70
2019-02-14T03:59:39.234Z,73.87
2019-02-14T04:02:07.018Z,72.83
2019-02-14T04:04:34.519Z,73.58
2019-02-14T04:07:01.956Z,72.63
2019-02-14T04:09:29.549Z,73.13
2019-02-14T04:11:56.958Z,72.94
2019-02-14T04:14:24.886Z,73.12
2019-02-14T04:16:52.333Z,72.82
2019-02-14T04:19:19.926Z,73.19
2019-02-14T04:21:47.388Z,72.33
2019-02-14T04:24:14.857Z,72.36
2019-02-14T04:26:42.309Z,71.22
2019-02-14T04:29:09.691Z,71.32
2019-02-14T04:31:37.159Z,70.89
2019-02-14T04:34:04.882Z,72.46
2019-02-14T04:36:36.050Z,73.14
2019-02-14T04:39:01.635Z,73.09
2019-02-14T04:41:29.025Z,73.72
2019-02-14T04:43:56.516Z,73.60
2019-02-14T04:46:23.991Z,72.41
2019-02-14T04:48:51.475Z,72.37
2019-02-14T04:51:18.948Z,71.88
2019-02-14T04:53:46.557Z,75.03
2019-02-14T04:56:14.043Z,72.99
2019-02-14T04:58:41.421Z,72.67
2019-02-14T05:01:08.977Z,73.94
2019-02-14T05:03:36.708Z,73.34
2019-02-14T05:06:04.282Z,73.43
2019-02-14T05:08:31.732Z,72.21
2019-02-14T05:10:59.248Z,73.23
2019-02-14T05:13:26.760Z,72.09
2019-02-14T05:15:54.126Z,70.79
2019-02-14T05:18:21.587Z,73.42
2019-02-14T05:20:49.064Z,70.58
2019-02-14T05:23:16.515Z,70.46
2019-02-14T05:25:43.949Z,69.77
2019-02-14T05:28:11.323Z,69.65
2019-02-14T05:30:38.796Z,69.82
2019-02-14T05:33:06.234Z,69.85
2019-02-14T05:35:33.671Z,70.77
2019-02-14T05:38:01.068Z,69.88
2019-02-14T05:40:28.507Z,69.49
2019-02-14T05:42:55.944Z,69.08
2019-02-14T05:45:23.418Z,69.37
2019-02-14T05:47:50.785Z,69.62
2019-02-14T05:50:18.352Z,69.39
2019-02-14T05:52:45.805Z,69.42
2019-02-14T05:55:13.340Z,68.52
2019-02-14T05:57:41.070Z,69.41
2019-02-14T06:00:10.586Z,69.61
2019-02-14T06:02:38.182Z,68.55
2019-02-14T06:05:05.825Z,67.75
2019-02-14T06:07:33.210Z,67.26
2019-02-14T06:10:00.649Z,65.91
2019-02-14T06:12:28.294Z,65.50
2019-02-14T06:14:55.731Z,67.18
2019-02-14T06:17:23.213Z,65.46
2019-02-14T06:19:50.648Z,64.63
2019-02-14T06:22:18.350Z,64.53
2019-02-14T06:24:45.856Z,64.89
2019-02-14T06:27:13.331Z,65.59
2019-02-14T06:29:40.776Z,63.84
2019-02-14T06:32:08.218Z,64.30
2019-02-14T06:34:35.656Z,65.01
2019-02-14T06:37:09.457Z,63.81
2019-02-14T06:39:32.411Z,63.26
2019-02-14T06:41:59.920Z,62.29
2019-02-14T06:44:27.380Z,62.52
2019-02-14T06:46:54.764Z,63.25
2019-02-14T06:49:22.568Z,63.87
2019-02-14T06:51:50.095Z,64.99
2019-02-14T06:54:17.495Z,64.16
2019-02-14T06:56:45.069Z,63.24
2019-02-14T06:59:12.631Z,65.07
2019-02-14T07:01:40.106Z,63.12
2019-02-14T07:04:07.570Z,64.67
2019-02-14T07:06:35.083Z,62.58
2019-02-14T07:09:04.454Z,62.94
2019-02-14T07:11:31.954Z,62.33
2019-02-14T07:13:59.417Z,62.69
2019-02-14T07:16:26.868Z,61.37
2019-02-14T07:18:54.293Z,62.26
2019-02-14T07:21:21.907Z,62.45
2019-02-14T07:23:49.259Z,61.75
2019-02-14T07:26:16.705Z,63.02
2019-02-14T07:28:44.138Z,63.37
2019-02-14T07:31:11.579Z,62.51
2019-02-14T07:33:39.004Z,62.17
2019-02-14T07:36:06.384Z,62.83
2019-02-14T07:38:33.833Z,61.62
2019-02-14T07:41:01.243Z,62.01
2019-02-14T07:43:28.781Z,62.17
2019-02-14T07:45:56.218Z,61.88
2019-02-14T07:48:23.656Z,62.78
2019-02-14T07:50:51.108Z,61.73
2019-02-14T07:53:18.512Z,61.96
2019-02-14T07:55:46.093Z,60.07
2019-02-14T07:58:13.670Z,62.83
2019-02-14T08:00:41.140Z,59.08
2019-02-14T08:03:08.575Z,58.94
2019-02-14T08:05:35.987Z,60.10
2019-02-14T08:08:03.348Z,59.53
2019-02-14T08:10:30.799Z,59.62
2019-02-14T08:12:58.257Z,59.11
2019-02-14T08:15:25.676Z,60.82
2019-02-14T08:17:53.118Z,59.58
2019-02-14T08:20:20.761Z,56.94
2019-02-14T08:22:48.201Z,58.29
2019-02-14T08:25:15.650Z,57.03
2019-02-14T08:27:43.082Z,56.86
2019-02-14T08:30:12.420Z,56.66
2019-02-14T08:32:39.965Z,56.24
2019-02-14T08:35:07.722Z,56.95
2019-02-14T08:37:35.190Z,56.69
2019-02-14T08:40:02.702Z,57.37
2019-02-14T08:42:30.129Z,57.55
2019-02-14T08:44:57.590Z,58.44
2019-02-14T08:47:24.992Z,57.96
2019-02-14T08:49:52.452Z,56.93
2019-02-14T08:52:19.915Z,55.63
2019-02-14T08:54:47.386Z,56.55
2019-02-14T08:57:14.765Z,55.44
2019-02-14T08:59:42.337Z,55.07
2019-02-14T09:02:09.896Z,56.16
2019-02-14T09:04:37.287Z,54.77
2019-02-14T09:07:04.737Z,55.47
2019-02-14T09:09:32.165Z,55.73
2019-02-14T09:12:00.144Z,54.67
2019-02-14T09:14:27.552Z,54.98
2019-02-14T09:16:55.012Z,54.62
2019-02-14T09:19:22.501Z,54.79
2019-02-14T09:21:49.916Z,54.48
2019-02-14T09:24:17.306Z,54.00
2019-02-14T09:26:44.741Z,54.17
2019-02-14T09:29:14.316Z,54.52
2019-02-14T09:31:41.480Z,54.52
2019-02-14T09:34:08.907Z,56.97
2019-02-14T09:36:36.351Z,54.20
2019-02-14T09:39:05.139Z,53.61
2019-02-14T09:41:32.569Z,54.61
2019-02-14T09:44:00.093Z,52.24
2019-02-14T09:46:27.550Z,52.95
2019-02-14T09:48:55.007Z,51.81
2019-02-14T09:51:22.387Z,51.74
2019-02-14T09:53:49.856Z,51.36
2019-02-14T09:56:17.294Z,50.75
2019-02-14T09:58:44.720Z,50.79
2019-02-14T10:01:12.284Z,51.48
2019-02-14T10:03:39.828Z,53.14
2019-02-14T10:06:07.350Z,56.13
2019-02-14T10:08:34.827Z,53.30
2019-02-14T10:11:02.290Z,49.75
2019-02-14T10:13:29.923Z,49.87
2019-02-14T10:15:57.342Z,50.97
2019-02-14T10:18:24.719Z,50.48
2019-02-14T10:20:52.163Z,52.06
2019-02-14T10:23:19.586Z,50.16
2019-02-14T10:25:47.019Z,49.10
2019-02-14T10:28:14.448Z,49.32
2019-02-14T10:30:41.863Z,49.37
2019-02-14T10:33:09.266Z,51.52
2019-02-14T10:35:36.686Z,48.06
2019-02-14T10:38:04.161Z,47.57
2019-02-14T10:40:31.733Z,48.65
2019-02-14T10:42:59.106Z,48.13
2019-02-14T10:45:26.619Z,48.47
2019-02-14T10:47:54.127Z,47.70
2019-02-14T10:50:21.501Z,47.77
2019-02-14T10:52:49.005Z,46.69
2019-02-14T10:55:16.547Z,46.92
2019-02-14T10:57:44.099Z,48.10
2019-02-14T11:00:17.622Z,47.93
2019-02-14T11:02:46.073Z,47.77
2019-02-14T11:05:14.520Z,47.79
2019-02-14T11:07:42.009Z,48.91
2019-02-14T11:10:10.088Z,48.81
2019-02-14T11:12:37.648Z,46.87
2019-02-14T11:15:05.684Z,46.71
2019-02-14T11:17:33.071Z,48.04
2019-02-14T11:20:00.484Z,47.52
2019-02-14T11:22:27.909Z,48.37
2019-02-14T11:24:55.458Z,47.13
2019-02-14T11:27:22.879Z,46.27
2019-02-14T11:29:50.314Z,45.26
2019-02-14T11:32:17.747Z,44.41
2019-02-14T11:34:45.128Z,44.95
2019-02-14T11:37:12.573Z,47.59
2019-02-14T11:39:40.000Z,45.20
2019-02-14T11:42:07.365Z,45.19
2019-02-14T11:44:39.847Z,45.35
2019-02-14T11:47:04.147Z,46.27
2019-02-14T11:49:31.583Z,47.66
2019-02-14T11:51:58.955Z,47.22
2019-02-14T11:54:26.532Z,47.41
2019-02-14T11:56:54.036Z,45.76
2019-02-14T11:59:21.388Z,45.46
2019-02-14T12:01:55.237Z,46.25
2019-02-14T12:04:18.312Z,46.28
2019-02-14T12:06:45.775Z,49.09
2019-02-14T12:09:13.363Z,47.32
2019-02-14T12:11:40.800Z,48.03
2019-02-14T12:14:08.228Z,46.54
2019-02-14T12:16:35.633Z,47.93
2019-02-14T12:19:03.159Z,48.06
2019-02-14T12:21:30.584Z,49.02
2019-02-14T12:23:57.938Z,48.81
2019-02-14T12:26:25.439Z,49.40
2019-02-14T12:28:53.003Z,50.24
2019-02-14T12:31:20.401Z,50.00
2019-02-14T12:33:47.847Z,50.03
2019-02-14T12:36:15.328Z,50.07
2019-02-14T12:38:42.780Z,51.14
2019-02-14T12:41:10.208Z,52.46
2019-02-14T12:43:37.585Z,52.60
2019-02-14T12:46:05.019Z,53.30
2019-02-14T12:48:32.466Z,51.76
2019-02-14T12:50:59.886Z,52.56
2019-02-14T12:53:27.317Z,52.47
2019-02-14T12:55:54.763Z,54.06
2019-02-14T12:58:22.151Z,54.85
2019-02-14T13:00:49.602Z,54.97
2019-02-14T13:03:17.051Z,55.36
2019-02-14T13:05:44.559Z,55.64
2019-02-14T13:08:12.080Z,56.40
2019-02-14T13:10:39.565Z,56.61
2019-02-14T13:13:07.047Z,57.19
2019-02-14T13:15:34.510Z,58.04
2019-02-14T13:18:02.021Z,58.66
2019-02-14T13:20:29.453Z,59.13
2019-02-14T13:22:56.907Z,58.40
2019-02-14T13:25:24.342Z,57.64
2019-02-14T13:27:51.821Z,57.70
2019-02-14T13:30:20.824Z,59.18
2019-02-14T13:32:48.291Z,57.99
2019-02-14T13:35:15.738Z,58.07
2019-02-14T13:37:43.160Z,58.15
2019-02-14T13:40:10.595Z,59.38
2019-02-14T13:42:38.063Z,59.94
2019-02-14T13:45:08.109Z,59.07
2019-02-14T13:47:35.495Z,59.78
2019-02-14T13:50:03.009Z,59.27
2019-02-14T13:52:30.453Z,60.37
2019-02-14T13:54:57.813Z,60.44
2019-02-14T13:57:25.242Z,60.29
2019-02-14T13:59:52.709Z,59.95
2019-02-14T14:02:20.133Z,61.30
2019-02-14T14:04:47.594Z,60.95
2019-02-14T14:07:15.184Z,62.17
2019-02-14T14:09:42.580Z,62.10
2019-02-14T14:12:10.029Z,62.27
2019-02-14T14:14:37.488Z,62.73
2019-02-14T14:17:04.900Z,62.85
2019-02-14T14:19:32.421Z,62.56
2019-02-14T14:21:59.899Z,62.90
2019-02-14T14:24:27.278Z,63.83
2019-02-14T14:26:54.766Z,63.53
2019-02-14T14:29:22.181Z,64.78
2019-02-14T14:31:49.625Z,64.47
2019-02-14T14:34:17.050Z,64.93
2019-02-14T14:36:44.442Z,64.73
2019-02-14T14:39:11.851Z,64.20
2019-02-14T14:41:39.287Z,65.29
2019-02-14T14:44:33.103Z,65.75
2019-02-14T14:47:08.883Z,64.50
2019-02-14T14:49:36.340Z,64.94
2019-02-14T14:52:03.782Z,65.34
2019-02-14T14:54:31.144Z,64.59
2019-02-14T14:56:58.602Z,64.94
2019-02-14T14:59:26.047Z,64.64
2019-02-14T15:01:53.573Z,65.35
2019-02-14T15:04:21.023Z,66.06
2019-02-14T15:06:48.439Z,65.13
2019-02-14T15:09:15.977Z,66.69
2019-02-14T15:11:43.379Z,65.41
2019-02-14T15:14:10.920Z,65.76
2019-02-14T15:16:38.334Z,65.49
2019-02-14T15:19:05.776Z,65.50
2019-02-14T15:21:33.160Z,65.76
2019-02-14T15:24:00.602Z,66.58
2019-02-14T15:26:28.042Z,67.00
2019-02-14T15:28:55.509Z,66.46
2019-02-14T15:31:22.867Z,68.22
2019-02-14T15:33:50.320Z,67.58
2019-02-14T15:36:17.750Z,67.51
2019-02-14T15:38:45.156Z,67.91
2019-02-14T15:41:12.617Z,67.54
2019-02-14T15:43:40.047Z,67.21
2019-02-14T15:46:07.478Z,67.40
2019-02-14T15:48:34.850Z,67.02
2019-02-14T15:51:02.305Z,68.12
2019-02-14T15:53:29.759Z,67.20
2019-02-14T15:55:57.186Z,67.31
2019-02-14T15:58:24.619Z,67.20
2019-02-14T16:00:53.997Z,67.15
2019-02-14T16:03:21.418Z,67.47
2019-02-14T16:05:48.771Z,67.79
2019-02-14T16:08:16.199Z,68.42
2019-02-14T16:10:43.801Z,67.69
2019-02-14T16:13:11.325Z,67.42
2019-02-14T16:15:38.797Z,68.04
2019-02-14T16:18:06.132Z,68.73
2019-02-14T16:20:33.598Z,68.38
2019-02-14T16:23:01.057Z,70.72
2019-02-14T16:25:30.196Z,68.08
2019-02-14T16:27:57.795Z,68.25
2019-02-14T16:30:25.277Z,68.07
2019-02-14T16:32:52.744Z,68.35
2019-02-14T16:35:20.128Z,68.09
2019-02-14T16:37:48.728Z,69.17
2019-02-14T16:40:16.967Z,68.71
2019-02-14T16:42:44.474Z,68.86
2019-02-14T16:45:11.972Z,68.79
2019-02-14T16:47:39.369Z,69.78
2019-02-14T16:50:07.158Z,69.51
2019-02-14T16:52:34.610Z,69.62
2019-02-14T16:55:02.051Z,70.60
2019-02-14T16:57:29.512Z,70.81
2019-02-14T16:59:56.961Z,71.86
2019-02-14T17:02:24.404Z,70.77
2019-02-14T17:04:51.812Z,69.43
2019-02-14T17:07:19.234Z,69.85
2019-02-14T17:09:46.764Z,70.56
2019-02-14T17:12:14.345Z,70.48
2019-02-14T17:14:41.766Z,71.38
2019-02-14T17:17:09.216Z,71.73
2019-02-14T17:19:36.691Z,71.97
2019-02-14T17:22:04.178Z,72.19
2019-02-14T17:24:31.633Z,71.90
2019-02-14T17:26:59.148Z,71.57
2019-02-14T17:29:26.505Z,71.61
2019-02-14T17:31:53.988Z,72.24
2019-02-14T17:34:21.430Z,72.56
2019-02-14T17:36:48.990Z,72.12
2019-02-14T17:39:16.446Z,72.50
2019-02-14T17:41:43.843Z,72.42
2019-02-14T17:44:11.274Z,72.70
2019-02-14T17:46:38.717Z,72.64
2019-02-14T17:49:06.091Z,71.96
2019-02-14T17:51:33.549Z,72.73
2019-02-14T17:54:01.832Z,73.16
2019-02-14T17:56:29.339Z,73.17
2019-02-14T17:58:56.765Z,73.75
2019-02-14T18:01:24.326Z,73.79
2019-02-14T18:03:51.780Z,74.56
2019-02-14T18:06:19.156Z,73.83
2019-02-14T18:08:46.596Z,74.82
2019-02-14T18:11:14.045Z,74.11
2019-02-14T18:13:41.683Z,74.24
2019-02-14T18:16:09.187Z,74.34
2019-02-14T18:18:36.681Z,74.90
2019-02-14T18:21:04.062Z,75.01
2019-02-14T18:23:31.527Z,75.28
2019-02-14T18:25:58.944Z,74.80
2019-02-14T18:28:26.416Z,75.10
2019-02-14T18:30:53.854Z,75.25
2019-02-14T18:33:21.458Z,74.21
2019-02-14T18:35:48.942Z,74.75
2019-02-14T18:38:16.426Z,74.90
2019-02-14T18:40:43.812Z,74.92
2019-02-14T18:43:11.310Z,74.60
2019-02-14T18:45:38.717Z,74.30
2019-02-14T18:48:06.118Z,74.37
2019-02-14T18:50:33.582Z,73.71
2019-02-14T18:53:01.035Z,72.93
2019-02-14T18:55:28.443Z,72.73
2019-02-14T18:57:55.887Z,72.47
2019-02-14T19:00:23.391Z,73.09
2019-02-14T19:02:50.823Z,73.07
2019-02-14T19:05:18.311Z,72.57
2019-02-14T19:07:45.731Z,72.73
2019-02-14T19:10:13.332Z,72.81
2019-02-14T19:12:40.859Z,72.66
2019-02-14T19:15:09.913Z,74.56
2019-02-14T19:17:37.458Z,74.16
2019-02-14T19:20:05.647Z,73.06
2019-02-14T19:22:33.205Z,73.32
2019-02-14T19:25:00.690Z,73.54
2019-02-14T19:27:28.096Z,74.36
2019-02-14T19:29:56.363Z,72.48
2019-02-14T19:32:23.922Z,73.34
2019-02-14T19:34:52.395Z,73.26
2019-02-14T19:37:20.016Z,73.54
2019-02-14T19:39:47.651Z,73.95
2019-02-14T19:42:15.116Z,72.07
2019-02-14T19:44:43.038Z,73.78
2019-02-14T19:47:10.506Z,72.67
2019-02-14T19:49:37.990Z,72.44
2019-02-14T19:52:05.410Z,72.42
2019-02-14T19:54:32.935Z,73.66
2019-02-14T19:57:00.303Z,74.89
2019-02-14T19:59:27.755Z,73.65
2019-02-14T20:01:55.171Z,72.87
2019-02-14T20:04:22.991Z,72.26
2019-02-14T20:06:50.461Z,72.29
2019-02-14T20:09:19.448Z,72.57
2019-02-14T20:11:46.915Z,72.18
2019-02-14T20:14:14.370Z,72.06
2019-02-14T20:16:42.016Z,71.98
2019-02-14T20:19:09.627Z,72.72
2019-02-14T20:21:38.718Z,72.32
2019-02-14T20:24:06.170Z,71.90
2019-02-14T20:26:33.677Z,72.94
2019-02-14T20:29:01.155Z,72.06
2019-02-14T20:31:28.647Z,71.44
2019-02-14T20:33:56.217Z,71.36
2019-02-14T20:36:23.884Z,72.28
2019-02-14T20:38:51.887Z,71.94
2019-02-14T20:41:19.374Z,72.26
2019-02-14T20:43:46.839Z,72.70
2019-02-14T20:46:14.217Z,73.30
2019-02-14T20:48:41.678Z,72.35
2019-02-14T20:51:09.213Z,72.65
2019-02-14T20:53:36.639Z,73.99
2019-02-14T20:56:04.127Z,73.98
2019-02-14T20:58:31.689Z,73.45
2019-02-14T21:00:59.959Z,72.62
2019-02-14T21:03:27.319Z,73.16
2019-02-14T21:05:54.754Z,73.70
2019-02-14T21:08:22.199Z,74.66
2019-02-14T21:10:49.593Z,74.07
2019-02-14T21:13:17.031Z,73.05
2019-02-14T21:15:44.973Z,73.41
2019-02-14T21:18:12.601Z,73.18
2019-02-14T21:20:40.242Z,73.58
2019-02-14T21:23:07.716Z,71.97
2019-02-14T21:25:35.101Z,73.96
2019-02-14T21:28:02.692Z,71.84
2019-02-14T21:30:35.118Z,72.32
2019-02-14T21:33:00.468Z,74.17
2019-02-14T21:35:27.829Z,71.60
2019-02-14T21:37:55.252Z,74.24
2019-02-14T21:40:22.676Z,74.21
2019-02-14T21:42:50.160Z,73.73
2019-02-14T21:45:17.589Z,71.16
2019-02-14T21:47:45.065Z,71.39
2019-02-14T21:50:12.779Z,72.34
2019-02-14T21:52:40.281Z,71.96
2019-02-14T21:55:08.616Z,72.96
2019-02-14T21:57:36.059Z,71.91
2019-02-14T22:00:04.975Z,72.07
2019-02-14T22:02:32.430Z,74.56
2019-02-14T22:04:59.892Z,73.90
2019-02-14T22:07:27.301Z,74.44
2019-02-14T22:09:54.730Z,73.39
2019-02-14T22:12:38.913Z,72.32
2019-02-14T22:14:51.543Z,71.44
2019-02-14T22:17:19.083Z,71.39
2019-02-14T22:19:46.627Z,71.90
2019-02-14T22:22:14.000Z,71.19
2019-02-14T22:24:41.540Z,71.41
2019-02-14T22:27:08.970Z,71.24
2019-02-14T22:29:36.365Z,73.83
2019-02-14T22:32:03.821Z,73.18
2019-02-14T22:34:31.268Z,72.01
2019-02-14T22:36:58.689Z,72.57
2019-02-14T22:39:26.479Z,72.70
2019-02-14T22:41:53.977Z,73.17
2019-02-14T22:44:21.410Z,73.99
2019-02-14T22:46:48.833Z,75.21
2019-02-14T22:49:16.282Z,72.20
2019-02-14T22:51:43.699Z,73.54
2019-02-14T22:54:11.085Z,72.13
2019-02-14T22:56:38.524Z,71.40
2019-02-14T22:59:05.964Z,71.76
2019-02-14T23:01:33.459Z,72.31
2019-02-14T23:04:00.921Z,74.59
2019-02-14T23:06:29.369Z,72.68
2019-02-14T23:08:57.061Z,72.45
2019-02-14T23:11:24.487Z,71.95
2019-02-14T23:13:51.937Z,72.60
2019-02-14T23:16:19.406Z,73.89
2019-02-14T23:18:46.863Z,74.29
2019-02-14T23:21:14.405Z,75.48
2019-02-14T23:23:41.899Z,76.17
2019-02-14T23:26:09.332Z,76.02
2019-02-14T23:28:36.774Z,78.88
2019-02-14T23:31:04.247Z,76.36
2019-02-14T23:33:31.663Z,78.49
2019-02-14T23:35:59.094Z,76.33
2019-02-14T23:38:26.488Z,74.96
2019-02-14T23:40:53.912Z,74.24
2019-02-14T23:43:21.385Z,73.99
2019-02-14T23:45:48.769Z,74.51
2019-02-14T23:48:16.244Z,74.65
2019-02-14T23:50:43.641Z,74.03
2019-02-14T23:53:11.075Z,74.47
2019-02-14T23:55:38.507Z,74.05
2019-02-14T23:58:06.032Z,73.86
